createdAt,value
2019-03-05T00:00:38.234Z,5.70
2019-03-05T00:03:07.816Z,5.70
2019-03-05T00:05:37.330Z,5.60
2019-03-05T00:08:06.813Z,5.60
2019-03-05T00:10:36.557Z,5.60
2019-03-05T00:13:06.052Z,5.60
2019-03-05T00:15:35.566Z,5.60
2019-03-05T00:18:05.408Z,5.70
2019-03-05T00:20:34.976Z,5.80
2019-03-05T00:23:04.444Z,5.80
2019-03-05T00:25:37.083Z,5.80
2019-03-05T00:28:25.528Z,5.80
2019-03-05T00:30:59.913Z,5.80
2019-03-05T00:33:46.011Z,5.80
2019-03-05T00:36:42.535Z,5.80
2019-03-05T00:39:16.645Z,5.80
2019-03-05T00:42:27.325Z,5.90
2019-03-05T00:45:25.905Z,5.90
2019-03-05T00:48:24.739Z,5.90
2019-03-05T00:51:36.461Z,5.80
2019-03-05T00:54:42.371Z,5.70
2019-03-05T00:57:37.500Z,5.60
2019-03-05T01:00:47.928Z,5.50
2019-03-05T01:03:53.869Z,5.50
2019-03-05T01:06:27.600Z,5.50
2019-03-05T01:08:58.138Z,5.50
2019-03-05T01:14:31.201Z,5.50
2019-03-05T01:17:00.688Z,5.40
2019-03-05T01:19:30.143Z,5.40
2019-03-05T01:21:59.649Z,5.30
2019-03-05T01:24:29.051Z,5.30
2019-03-05T01:26:58.853Z,5.30
2019-03-05T01:29:28.322Z,5.30
2019-03-05T01:31:59.444Z,5.30
2019-03-05T01:34:30.614Z,5.30
2019-03-05T01:37:02.068Z,5.30
2019-03-05T01:39:49.737Z,5.40
2019-03-05T01:42:19.589Z,5.50
2019-03-05T01:44:49.092Z,5.60
2019-03-05T01:47:18.553Z,5.60
2019-03-05T01:49:48.006Z,5.70
2019-03-05T01:52:17.427Z,5.70
2019-03-05T01:54:46.836Z,5.70
2019-03-05T01:57:16.238Z,5.70
2019-03-05T01:59:45.703Z,5.70
2019-03-05T02:02:15.078Z,5.70
2019-03-05T02:04:44.569Z,5.70
2019-03-05T02:07:14.006Z,5.70
2019-03-05T02:09:43.509Z,5.80
2019-03-05T02:12:13.127Z,5.70
2019-03-05T02:14:42.618Z,5.70
2019-03-05T02:17:12.177Z,5.70
2019-03-05T02:19:44.624Z,5.70
2019-03-05T02:22:27.650Z,5.60
2019-03-05T02:25:20.282Z,5.60
2019-03-05T02:28:12.403Z,5.60
2019-03-05T02:30:52.186Z,5.60
2019-03-05T02:33:38.032Z,5.60
2019-03-05T02:36:20.931Z,5.60
2019-03-05T02:39:00.749Z,5.60
2019-03-05T02:41:43.325Z,5.60
2019-03-05T02:44:29.293Z,5.60
2019-03-05T02:47:14.693Z,5.60
2019-03-05T02:50:14.487Z,5.60
2019-03-05T02:53:04.930Z,5.60
2019-03-05T02:55:50.975Z,5.60
2019-03-05T02:58:18.851Z,5.60
2019-03-05T03:00:58.808Z,5.60
2019-03-05T03:03:32.495Z,5.60
2019-03-05T03:06:03.540Z,5.60
2019-03-05T03:08:33.009Z,5.60
2019-03-05T03:11:02.581Z,5.60
2019-03-05T03:13:32.057Z,5.60
2019-03-05T03:16:01.470Z,5.50
2019-03-05T03:18:30.959Z,5.50
2019-03-05T03:21:00.396Z,5.50
2019-03-05T03:23:30.147Z,5.40
2019-03-05T03:25:59.603Z,5.40
2019-03-05T03:28:28.980Z,5.40
2019-03-05T03:30:58.418Z,5.30
2019-03-05T03:33:27.921Z,5.40
2019-03-05T03:35:57.393Z,5.40
2019-03-05T03:38:26.900Z,5.40
2019-03-05T03:40:56.335Z,5.40
2019-03-05T03:43:25.824Z,5.40
2019-03-05T03:45:55.339Z,5.40
2019-03-05T03:48:24.742Z,5.50
2019-03-05T03:50:54.185Z,5.40
2019-03-05T03:53:23.588Z,5.40
2019-03-05T03:55:52.994Z,5.40
2019-03-05T03:58:22.427Z,5.40
2019-03-05T04:00:51.971Z,5.30
2019-03-05T04:03:21.554Z,5.30
2019-03-05T04:05:51.103Z,5.30
2019-03-05T04:08:20.574Z,5.30
2019-03-05T04:10:50.008Z,5.30
2019-03-05T04:13:19.415Z,5.20
2019-03-05T04:15:48.927Z,5.20
2019-03-05T04:18:18.329Z,5.20
2019-03-05T04:20:49.389Z,5.20
2019-03-05T04:23:18.840Z,5.20
2019-03-05T04:25:48.293Z,5.20
2019-03-05T04:28:17.724Z,5.20
2019-03-05T04:31:06.474Z,5.10
2019-03-05T04:33:35.910Z,5.10
2019-03-05T04:36:05.390Z,5.10
2019-03-05T04:38:34.831Z,5.10
2019-03-05T04:41:04.312Z,5.10
2019-03-05T04:43:33.740Z,5.00
2019-03-05T04:46:21.065Z,4.90
2019-03-05T04:48:52.133Z,4.90
2019-03-05T04:51:23.176Z,4.80
2019-03-05T04:53:52.614Z,4.80
2019-03-05T04:56:22.004Z,4.70
2019-03-05T04:58:51.442Z,4.70
2019-03-05T05:01:20.840Z,4.60
2019-03-05T05:03:50.613Z,4.50
2019-03-05T05:06:20.418Z,4.40
2019-03-05T05:08:49.826Z,4.40
2019-03-05T05:11:19.271Z,4.40
2019-03-05T05:13:49.021Z,4.40
2019-03-05T05:16:18.459Z,4.30
2019-03-05T05:18:48.231Z,4.30
2019-03-05T05:21:17.707Z,4.30
2019-03-05T05:23:47.129Z,4.20
2019-03-05T05:26:23.265Z,4.20
2019-03-05T05:28:52.770Z,4.20
2019-03-05T05:31:22.198Z,4.20
2019-03-05T05:33:51.604Z,4.20
2019-03-05T05:36:21.043Z,4.20
2019-03-05T05:38:50.446Z,4.20
2019-03-05T05:41:19.942Z,4.20
2019-03-05T05:43:49.464Z,4.30
2019-03-05T05:46:18.964Z,4.20
2019-03-05T05:48:48.387Z,4.20
2019-03-05T05:51:17.776Z,4.20
2019-03-05T05:53:47.222Z,4.30
2019-03-05T05:56:16.633Z,4.30
2019-03-05T05:58:46.063Z,4.30
2019-03-05T06:01:15.494Z,4.40
2019-03-05T06:03:44.972Z,4.40
2019-03-05T06:06:14.477Z,4.40
2019-03-05T06:08:43.885Z,4.50
2019-03-05T06:11:13.425Z,4.40
2019-03-05T06:13:42.814Z,4.40
2019-03-05T06:16:12.217Z,4.50
2019-03-05T06:18:41.652Z,4.50
2019-03-05T06:21:11.072Z,4.40
2019-03-05T06:23:40.504Z,4.50
2019-03-05T06:26:09.912Z,4.50
2019-03-05T06:28:39.666Z,4.60
2019-03-05T06:31:09.076Z,4.60
2019-03-05T06:33:38.485Z,4.60
2019-03-05T06:36:07.954Z,4.50
2019-03-05T06:38:37.375Z,4.50
2019-03-05T06:41:06.814Z,4.60
2019-03-05T06:43:36.235Z,4.60
2019-03-05T06:46:05.656Z,4.60
2019-03-05T06:48:35.373Z,4.60
2019-03-05T06:51:04.793Z,4.70
2019-03-05T06:53:34.245Z,4.70
2019-03-05T06:56:03.656Z,4.70
2019-03-05T06:58:33.071Z,4.80
2019-03-05T07:01:02.506Z,4.80
2019-03-05T07:03:31.913Z,4.80
2019-03-05T07:06:47.709Z,4.70
2019-03-05T07:09:36.965Z,4.70
2019-03-05T07:12:11.114Z,4.80
2019-03-05T07:15:20.244Z,4.80
2019-03-05T07:18:12.540Z,4.80
2019-03-05T07:21:09.192Z,4.90
2019-03-05T07:24:00.778Z,4.90
2019-03-05T07:26:30.209Z,4.90
2019-03-05T07:28:59.758Z,4.90
2019-03-05T07:31:29.258Z,5.00
2019-03-05T07:33:58.663Z,5.30
2019-03-05T07:36:28.115Z,5.50
2019-03-05T07:38:57.541Z,5.60
2019-03-05T07:41:26.947Z,5.70
2019-03-05T07:43:56.404Z,5.80
2019-03-05T07:46:26.150Z,5.70
2019-03-05T07:48:55.973Z,5.80
2019-03-05T07:51:25.398Z,5.70
2019-03-05T07:53:54.872Z,5.70
2019-03-05T07:56:24.298Z,5.70
2019-03-05T07:58:54.083Z,6.00
2019-03-05T08:01:23.515Z,6.20
2019-03-05T08:03:52.934Z,6.40
2019-03-05T08:06:22.337Z,6.70
2019-03-05T08:09:30.540Z,7.00
2019-03-05T08:12:32.988Z,7.00
2019-03-05T08:15:18.338Z,6.90
2019-03-05T08:17:48.154Z,6.80
2019-03-05T08:20:17.822Z,6.60
2019-03-05T08:22:47.358Z,6.60
2019-03-05T08:25:16.824Z,6.60
2019-03-05T08:27:46.479Z,6.60
2019-03-05T08:30:18.108Z,6.60
2019-03-05T08:32:47.672Z,6.80
2019-03-05T08:35:17.155Z,6.90
2019-03-05T08:37:46.860Z,7.20
2019-03-05T08:40:17.774Z,7.50
2019-03-05T08:42:47.264Z,7.70
2019-03-05T08:45:28.479Z,7.50
2019-03-05T08:47:48.658Z,7.40
2019-03-05T08:50:18.103Z,7.30
2019-03-05T08:52:47.674Z,7.10
2019-03-05T08:55:17.256Z,6.90
2019-03-05T08:57:46.691Z,6.90
2019-03-05T09:00:21.450Z,7.00
2019-03-05T09:02:51.202Z,6.90
2019-03-05T09:05:20.938Z,6.90
2019-03-05T09:07:51.089Z,6.90
2019-03-05T09:10:27.352Z,7.00
2019-03-05T09:12:57.131Z,7.10
2019-03-05T09:15:26.736Z,7.50
2019-03-05T09:17:56.605Z,7.90
2019-03-05T09:20:26.098Z,7.70
2019-03-05T09:22:55.616Z,7.60
2019-03-05T09:25:25.118Z,7.70
2019-03-05T09:27:55.357Z,7.60
2019-03-05T09:30:25.493Z,7.70
2019-03-05T09:32:54.986Z,8.30
2019-03-05T09:35:24.507Z,8.50
2019-03-05T09:37:54.006Z,8.20
2019-03-05T09:40:28.819Z,8.40
2019-03-05T09:42:58.306Z,8.50
2019-03-05T09:45:28.413Z,8.50
2019-03-05T09:47:57.972Z,8.50
2019-03-05T09:50:27.524Z,8.50
2019-03-05T09:52:56.976Z,8.50
2019-03-05T09:55:27.250Z,8.50
2019-03-05T09:58:07.629Z,8.60
2019-03-05T10:00:30.078Z,8.60
2019-03-05T10:02:59.626Z,8.60
2019-03-05T10:05:29.139Z,8.50
2019-03-05T10:07:58.566Z,8.50
2019-03-05T10:10:31.816Z,8.30
2019-03-05T10:13:04.263Z,8.40
2019-03-05T10:15:33.388Z,8.50
2019-03-05T10:18:12.131Z,8.50
2019-03-05T10:20:35.573Z,8.60
2019-03-05T10:23:05.980Z,8.90
2019-03-05T10:25:35.549Z,9.00
2019-03-05T10:28:06.006Z,9.10
2019-03-05T10:30:42.308Z,9.40
2019-03-05T10:33:12.691Z,9.60
2019-03-05T10:35:42.185Z,9.90
2019-03-05T10:38:16.060Z,10.00
2019-03-05T10:40:51.040Z,10.10
2019-03-05T10:43:20.513Z,10.20
2019-03-05T10:45:50.811Z,10.10
2019-03-05T10:48:23.878Z,10.30
2019-03-05T10:50:53.431Z,10.50
2019-03-05T10:53:22.998Z,10.70
2019-03-05T10:55:52.573Z,10.80
2019-03-05T10:58:32.767Z,11.00
2019-03-05T11:00:55.913Z,10.70
2019-03-05T11:03:29.232Z,10.50
2019-03-05T11:05:58.869Z,10.20
2019-03-05T11:08:28.830Z,10.30
2019-03-05T11:10:58.588Z,10.50
2019-03-05T11:13:28.097Z,10.40
2019-03-05T11:16:00.881Z,10.20
2019-03-05T11:18:30.400Z,10.10
2019-03-05T11:20:59.898Z,10.00
2019-03-05T11:23:29.345Z,9.90
2019-03-05T11:25:58.780Z,10.10
2019-03-05T11:28:28.275Z,10.30
2019-03-05T11:30:57.710Z,10.60
2019-03-05T11:33:27.180Z,10.80
2019-03-05T11:35:56.786Z,10.80
2019-03-05T11:38:26.787Z,10.80
2019-03-05T11:40:56.311Z,10.90
2019-03-05T11:43:25.722Z,11.30
2019-03-05T11:45:55.589Z,11.10
2019-03-05T11:48:25.051Z,11.20
2019-03-05T11:50:54.558Z,11.60
2019-03-05T11:53:24.139Z,11.70
2019-03-05T11:55:53.564Z,11.50
2019-03-05T11:58:23.020Z,11.60
2019-03-05T12:00:54.154Z,12.00
2019-03-05T12:03:23.579Z,12.10
2019-03-05T12:05:53.107Z,11.80
2019-03-05T12:08:22.605Z,11.50
2019-03-05T12:10:52.153Z,11.30
2019-03-05T12:13:21.721Z,11.20
2019-03-05T12:15:51.227Z,11.30
2019-03-05T12:18:21.262Z,11.70
2019-03-05T12:20:50.664Z,11.80
2019-03-05T12:23:22.152Z,12.10
2019-03-05T12:25:51.658Z,12.00
2019-03-05T12:28:24.075Z,11.40
2019-03-05T12:30:52.921Z,11.60
2019-03-05T12:33:24.177Z,11.70
2019-03-05T12:35:53.705Z,11.70
2019-03-05T12:38:23.149Z,11.70
2019-03-05T12:40:52.753Z,11.70
2019-03-05T12:43:22.190Z,11.50
2019-03-05T12:45:53.386Z,11.60
2019-03-05T12:48:22.903Z,11.80
2019-03-05T12:50:52.568Z,12.00
2019-03-05T12:53:22.078Z,12.10
2019-03-05T12:55:51.479Z,12.10
2019-03-05T12:58:21.282Z,12.20
2019-03-05T13:00:50.787Z,12.10
2019-03-05T13:03:20.235Z,11.70
2019-03-05T13:05:49.753Z,11.60
2019-03-05T13:08:19.187Z,11.30
2019-03-05T13:10:48.837Z,11.60
2019-03-05T13:13:18.358Z,12.10
2019-03-05T13:15:47.934Z,12.40
2019-03-05T13:18:17.801Z,12.40
2019-03-05T13:20:47.199Z,12.20
2019-03-05T13:23:16.940Z,12.10
2019-03-05T13:25:46.490Z,11.80
2019-03-05T13:28:15.987Z,12.10
2019-03-05T13:30:45.578Z,12.20
2019-03-05T13:33:15.083Z,12.20
2019-03-05T13:35:44.487Z,12.30
2019-03-05T13:38:13.998Z,12.50
2019-03-05T13:40:43.427Z,12.10
2019-03-05T13:43:12.859Z,12.00
2019-03-05T13:45:49.127Z,11.70
2019-03-05T13:48:19.614Z,11.60
2019-03-05T13:51:19.505Z,11.80
2019-03-05T13:54:17.824Z,12.00
2019-03-05T13:57:19.567Z,12.10
2019-03-05T13:59:49.765Z,11.90
2019-03-05T14:02:26.919Z,11.60
2019-03-05T14:05:06.827Z,11.60
2019-03-05T14:08:15.476Z,11.70
2019-03-05T14:10:44.933Z,11.70
2019-03-05T14:13:14.394Z,11.60
2019-03-05T14:15:45.510Z,11.50
2019-03-05T14:18:15.459Z,11.40
2019-03-05T14:20:44.990Z,11.30
2019-03-05T14:23:14.472Z,11.20
2019-03-05T14:25:44.495Z,11.00
2019-03-05T14:28:14.021Z,10.90
2019-03-05T14:30:44.956Z,10.90
2019-03-05T14:33:14.631Z,10.90
2019-03-05T14:35:47.390Z,10.90
2019-03-05T14:38:16.390Z,10.90
2019-03-05T14:40:46.406Z,10.90
2019-03-05T14:43:15.971Z,11.00
2019-03-05T14:45:45.619Z,11.10
2019-03-05T14:48:15.118Z,11.20
2019-03-05T14:50:46.344Z,11.10
2019-03-05T14:53:15.880Z,11.20
2019-03-05T14:55:45.529Z,11.10
2019-03-05T14:58:14.963Z,11.20
2019-03-05T15:00:44.664Z,11.20
2019-03-05T15:03:14.358Z,11.20
2019-03-05T15:05:43.820Z,11.20
2019-03-05T15:08:13.291Z,11.20
2019-03-05T15:10:42.785Z,11.20
2019-03-05T15:13:17.213Z,11.30
2019-03-05T15:15:43.753Z,11.30
2019-03-05T15:18:13.356Z,11.30
2019-03-05T15:20:42.817Z,11.30
2019-03-05T15:23:12.447Z,11.30
2019-03-05T15:25:42.051Z,11.20
2019-03-05T15:28:11.478Z,11.20
2019-03-05T15:30:40.998Z,11.20
2019-03-05T15:33:10.499Z,11.20
2019-03-05T15:35:39.995Z,11.30
2019-03-05T15:38:09.486Z,11.30
2019-03-05T15:40:42.149Z,11.30
2019-03-05T15:43:13.207Z,11.20
2019-03-05T15:45:42.818Z,11.20
2019-03-05T15:48:12.412Z,11.20
2019-03-05T15:50:42.274Z,11.10
2019-03-05T15:53:14.679Z,11.10
2019-03-05T15:55:44.165Z,11.10
2019-03-05T15:58:15.254Z,11.10
2019-03-05T16:00:45.186Z,11.10
2019-03-05T16:03:15.501Z,11.10
2019-03-05T16:05:45.069Z,11.10
2019-03-05T16:08:14.483Z,11.10
2019-03-05T16:10:43.991Z,11.00
2019-03-05T16:13:15.265Z,11.00
2019-03-05T16:15:45.498Z,11.00
2019-03-05T16:18:16.046Z,11.00
2019-03-05T16:20:45.542Z,10.90
2019-03-05T16:23:14.993Z,10.90
2019-03-05T16:25:46.163Z,11.00
2019-03-05T16:28:16.495Z,11.00
2019-03-05T16:30:53.577Z,11.00
2019-03-05T16:33:27.396Z,11.00
2019-03-05T16:36:16.808Z,10.90
2019-03-05T16:38:55.122Z,10.90
2019-03-05T16:41:27.392Z,10.80
2019-03-05T16:43:58.473Z,10.80
2019-03-05T16:46:45.760Z,10.70
2019-03-05T16:49:32.118Z,10.70
2019-03-05T16:52:19.062Z,10.70
2019-03-05T16:54:50.226Z,10.60
2019-03-05T16:57:27.625Z,10.50
2019-03-05T17:00:14.699Z,10.40
2019-03-05T17:02:49.020Z,10.30
2019-03-05T17:05:42.366Z,10.20
2019-03-05T17:08:29.712Z,10.20
2019-03-05T17:11:01.260Z,10.10
2019-03-05T17:13:30.765Z,10.10
2019-03-05T17:16:00.183Z,10.10
2019-03-05T17:18:29.612Z,10.00
2019-03-05T17:20:59.066Z,9.90
2019-03-05T17:23:28.549Z,9.90
2019-03-05T17:25:58.059Z,9.80
2019-03-05T17:28:27.559Z,9.80
2019-03-05T17:30:57.075Z,9.80
2019-03-05T17:33:26.792Z,9.80
2019-03-05T17:35:56.222Z,9.80
2019-03-05T17:38:25.670Z,9.80
2019-03-05T17:40:55.192Z,9.80
2019-03-05T17:43:24.858Z,9.90
2019-03-05T17:45:54.303Z,9.90
2019-03-05T17:48:23.716Z,9.90
2019-03-05T17:51:00.046Z,9.90
2019-03-05T17:53:29.823Z,9.80
2019-03-05T17:55:59.400Z,9.80
2019-03-05T17:58:28.955Z,9.80
2019-03-05T18:00:58.619Z,9.80
2019-03-05T18:03:28.090Z,9.80
2019-03-05T18:05:57.508Z,9.70
2019-03-05T18:08:27.026Z,9.70
2019-03-05T18:10:56.476Z,9.60
2019-03-05T18:13:25.964Z,9.60
2019-03-05T18:15:55.413Z,9.60
2019-03-05T18:18:24.912Z,9.60
2019-03-05T18:20:54.481Z,9.70
2019-03-05T18:23:24.162Z,9.70
2019-03-05T18:25:53.701Z,9.70
2019-03-05T18:28:23.264Z,9.70
2019-03-05T18:30:52.848Z,9.80
2019-03-05T18:33:22.286Z,9.80
2019-03-05T18:35:51.769Z,9.80
2019-03-05T18:38:21.336Z,9.80
2019-03-05T18:40:51.644Z,9.80
2019-03-05T18:43:21.116Z,9.80
2019-03-05T18:45:50.891Z,9.80
2019-03-05T18:48:20.324Z,9.80
2019-03-05T18:50:49.825Z,9.80
2019-03-05T18:53:19.303Z,9.80
2019-03-05T18:55:48.793Z,9.80
2019-03-05T18:58:18.230Z,9.80
2019-03-05T19:00:47.661Z,9.70
2019-03-05T19:03:20.166Z,9.70
2019-03-05T19:05:49.769Z,9.70
2019-03-05T19:08:19.170Z,9.70
2019-03-05T19:10:48.976Z,9.70
2019-03-05T19:13:18.481Z,9.70
2019-03-05T19:15:48.282Z,9.70
2019-03-05T19:18:18.013Z,9.60
2019-03-05T19:20:47.529Z,9.60
2019-03-05T19:23:17.149Z,9.60
2019-03-05T19:25:47.946Z,9.60
2019-03-05T19:28:17.516Z,9.50
2019-03-05T19:30:53.399Z,9.50
2019-03-05T19:33:22.823Z,9.50
2019-03-05T19:35:52.391Z,9.50
2019-03-05T19:38:22.135Z,9.50
2019-03-05T19:40:51.733Z,9.50
2019-03-05T19:43:21.480Z,9.40
2019-03-05T19:45:50.971Z,9.40
2019-03-05T19:48:20.383Z,9.40
2019-03-05T19:50:49.811Z,9.50
2019-03-05T19:53:19.327Z,9.50
2019-03-05T19:55:48.893Z,9.50
2019-03-05T19:58:18.413Z,9.50
2019-03-05T20:01:02.838Z,9.50
2019-03-05T20:03:32.424Z,9.50
2019-03-05T20:06:02.132Z,9.50
2019-03-05T20:08:39.386Z,9.50
2019-03-05T20:11:03.058Z,9.50
2019-03-05T20:13:32.525Z,9.50
2019-03-05T20:16:02.118Z,9.50
2019-03-05T20:18:31.602Z,9.50
2019-03-05T20:21:01.017Z,9.60
2019-03-05T20:23:30.567Z,9.60
2019-03-05T20:26:00.232Z,9.60
2019-03-05T20:28:29.705Z,9.60
2019-03-05T20:30:59.147Z,9.60
2019-03-05T20:33:28.662Z,9.60
2019-03-05T20:35:58.336Z,9.60
2019-03-05T20:38:27.852Z,9.60
2019-03-05T20:40:57.482Z,9.60
2019-03-05T20:43:26.912Z,9.60
2019-03-05T20:46:16.406Z,9.60
2019-03-05T20:48:45.819Z,9.60
2019-03-05T20:51:15.279Z,9.60
2019-03-05T20:53:44.790Z,9.50
2019-03-05T20:56:14.628Z,9.50
2019-03-05T20:58:44.064Z,9.50
2019-03-05T21:01:13.629Z,9.40
2019-03-05T21:03:43.238Z,9.40
2019-03-05T21:06:12.878Z,9.40
2019-03-05T21:08:42.602Z,9.40
2019-03-05T21:11:12.466Z,9.40
2019-03-05T21:13:41.978Z,9.30
2019-03-05T21:16:11.508Z,9.30
2019-03-05T21:18:41.275Z,9.40
2019-03-05T21:21:10.749Z,9.40
2019-03-05T21:23:40.215Z,9.30
2019-03-05T21:26:09.708Z,9.30
2019-03-05T21:28:39.179Z,9.30
2019-03-05T21:31:09.046Z,9.30
2019-03-05T21:33:38.772Z,9.40
2019-03-05T21:36:08.290Z,9.30
2019-03-05T21:38:37.826Z,9.30
2019-03-05T21:41:07.359Z,9.30
2019-03-05T21:43:36.791Z,9.30
2019-03-05T21:46:16.785Z,9.20
2019-03-05T21:48:46.208Z,9.20
2019-03-05T21:51:15.947Z,9.20
2019-03-05T21:53:45.392Z,9.30
2019-03-05T21:56:14.817Z,9.20
2019-03-05T21:58:44.330Z,9.30
2019-03-05T22:01:14.155Z,9.30
2019-03-05T22:03:43.591Z,9.30
2019-03-05T22:06:13.038Z,9.30
2019-03-05T22:08:42.466Z,9.30
2019-03-05T22:11:11.938Z,9.30
2019-03-05T22:13:41.357Z,9.30
2019-03-05T22:16:10.866Z,9.30
2019-03-05T22:18:40.295Z,9.30
2019-03-05T22:21:09.965Z,9.20
2019-03-05T22:23:39.472Z,9.20
2019-03-05T22:26:08.885Z,9.30
2019-03-05T22:28:38.479Z,9.30
2019-03-05T22:31:08.072Z,9.30
2019-03-05T22:33:37.503Z,9.30
2019-03-05T22:36:07.108Z,9.30
2019-03-05T22:38:36.523Z,9.30
2019-03-05T22:41:06.049Z,9.30
2019-03-05T22:43:35.479Z,9.30
2019-03-05T22:46:04.894Z,9.30
2019-03-05T22:48:34.343Z,9.40
2019-03-05T22:51:03.856Z,9.50
2019-03-05T22:53:33.320Z,9.60
2019-03-05T22:56:02.760Z,9.70
2019-03-05T22:58:32.196Z,9.80
2019-03-05T23:01:12.738Z,9.80
2019-03-05T23:03:42.768Z,9.80
2019-03-05T23:06:13.290Z,9.90
2019-03-05T23:08:43.188Z,9.90
2019-03-05T23:11:12.747Z,9.90
2019-03-05T23:13:42.878Z,9.90
2019-03-05T23:16:12.510Z,9.90
2019-03-05T23:18:42.087Z,10.00
2019-03-05T23:21:11.801Z,10.00
2019-03-05T23:23:41.298Z,10.00
2019-03-05T23:26:10.968Z,10.00
2019-03-05T23:28:41.043Z,10.10
2019-03-05T23:31:12.514Z,10.00
2019-03-05T23:33:42.301Z,10.00
2019-03-05T23:36:11.935Z,10.10
2019-03-05T23:38:41.372Z,10.10
2019-03-05T23:41:10.930Z,10.10
2019-03-05T23:43:40.444Z,10.10
2019-03-05T23:46:09.934Z,10.10
2019-03-05T23:48:39.355Z,10.00
2019-03-05T23:51:08.843Z,10.10
2019-03-05T23:53:38.262Z,10.10
2019-03-05T23:56:07.718Z,10.10
2019-03-05T23:58:37.179Z,10.10
